sensor_id;sensor_type;location;lat;lon;timestamp;P1;durP1;ratioP1;P2;durP2;ratioP2
69392;SDS011;56582;44.624;20.378;2022-08-01T00:01:33;8.70;;;5.40;;
69392;SDS011;56582;44.624;20.378;2022-08-01T00:03:58;9.60;;;5.00;;
69392;SDS011;56582;44.624;20.378;2022-08-01T00:06:24;8.87;;;5.50;;
69392;SDS011;56582;44.624;20.378;2022-08-01T00:08:49;7.17;;;5.37;;
69392;SDS011;56582;44.624;20.378;2022-08-01T00:11:15;7.43;;;5.18;;
69392;SDS011;56582;44.624;20.378;2022-08-01T00:13:40;8.03;;;5.07;;
69392;SDS011;56582;44.624;20.378;2022-08-01T00:16:06;9.17;;;5.30;;
69392;SDS011;56582;44.624;20.378;2022-08-01T00:18:31;9.50;;;5.70;;
69392;SDS011;56582;44.624;20.378;2022-08-01T00:20:57;8.88;;;5.57;;
69392;SDS011;56582;44.624;20.378;2022-08-01T00:23:22;9.27;;;5.80;;
69392;SDS011;56582;44.624;20.378;2022-08-01T00:25:48;8.13;;;5.57;;
69392;SDS011;56582;44.624;20.378;2022-08-01T00:28:13;8.60;;;5.40;;
69392;SDS011;56582;44.624;20.378;2022-08-01T00:30:39;7.57;;;5.30;;
69392;SDS011;56582;44.624;20.378;2022-08-01T00:33:04;9.47;;;5.03;;
69392;SDS011;56582;44.624;20.378;2022-08-01T00:35:30;7.85;;;4.95;;
69392;SDS011;56582;44.624;20.378;2022-08-01T00:37:55;10.20;;;5.80;;
69392;SDS011;56582;44.624;20.378;2022-08-01T00:40:21;8.37;;;4.77;;
69392;SDS011;56582;44.624;20.378;2022-08-01T00:42:47;8.00;;;5.32;;
69392;SDS011;56582;44.624;20.378;2022-08-01T00:45:12;9.57;;;6.37;;
69392;SDS011;56582;44.624;20.378;2022-08-01T00:47:38;9.27;;;5.60;;
69392;SDS011;56582;44.624;20.378;2022-08-01T00:50:04;9.45;;;6.50;;
69392;SDS011;56582;44.624;20.378;2022-08-01T00:52:30;12.67;;;5.97;;
69392;SDS011;56582;44.624;20.378;2022-08-01T00:54:57;7.18;;;5.22;;
69392;SDS011;56582;44.624;20.378;2022-08-01T00:57:22;8.30;;;5.43;;
69392;SDS011;56582;44.624;20.378;2022-08-01T00:59:48;7.15;;;4.88;;
69392;SDS011;56582;44.624;20.378;2022-08-01T01:02:13;8.43;;;5.60;;
69392;SDS011;56582;44.624;20.378;2022-08-01T01:04:39;9.30;;;5.20;;
69392;SDS011;56582;44.624;20.378;2022-08-01T01:07:19;6.77;;;5.30;;
69392;SDS011;56582;44.624;20.378;2022-08-01T01:12:54;6.63;;;5.20;;
69392;SDS011;56582;44.624;20.378;2022-08-01T01:15:30;7.72;;;5.13;;
69392;SDS011;56582;44.624;20.378;2022-08-01T01:18:03;12.85;;;5.35;;
69392;SDS011;56582;44.624;20.378;2022-08-01T01:20:42;7.65;;;4.97;;
69392;SDS011;56582;44.624;20.378;2022-08-01T01:23:21;7.43;;;4.90;;
69392;SDS011;56582;44.624;20.378;2022-08-01T01:31:20;8.18;;;4.63;;
69392;SDS011;56582;44.624;20.378;2022-08-01T01:33:48;9.20;;;5.32;;
69392;SDS011;56582;44.624;20.378;2022-08-01T01:36:16;8.07;;;4.95;;
69392;SDS011;56582;44.624;20.378;2022-08-01T01:38:45;7.20;;;5.33;;
69392;SDS011;56582;44.624;20.378;2022-08-01T01:41:12;7.55;;;5.10;;
69392;SDS011;56582;44.624;20.378;2022-08-01T01:43:40;9.35;;;4.82;;
69392;SDS011;56582;44.624;20.378;2022-08-01T01:46:07;7.72;;;4.53;;
69392;SDS011;56582;44.624;20.378;2022-08-01T01:48:35;8.63;;;4.18;;
69392;SDS011;56582;44.624;20.378;2022-08-01T01:51:02;6.13;;;4.30;;
69392;SDS011;56582;44.624;20.378;2022-08-01T01:53:28;7.68;;;3.92;;
69392;SDS011;56582;44.624;20.378;2022-08-01T01:55:58;7.45;;;4.30;;
69392;SDS011;56582;44.624;20.378;2022-08-01T01:58:25;6.15;;;4.40;;
69392;SDS011;56582;44.624;20.378;2022-08-01T02:00:55;6.75;;;4.22;;
69392;SDS011;56582;44.624;20.378;2022-08-01T02:03:23;6.60;;;4.57;;
69392;SDS011;56582;44.624;20.378;2022-08-01T02:05:51;8.35;;;4.55;;
69392;SDS011;56582;44.624;20.378;2022-08-01T02:08:18;6.95;;;4.85;;
69392;SDS011;56582;44.624;20.378;2022-08-01T02:10:45;7.53;;;4.97;;
69392;SDS011;56582;44.624;20.378;2022-08-01T02:13:31;7.15;;;5.57;;
69392;SDS011;56582;44.624;20.378;2022-08-01T02:15:58;11.77;;;4.90;;
69392;SDS011;56582;44.624;20.378;2022-08-01T02:18:24;13.05;;;5.07;;
69392;SDS011;56582;44.624;20.378;2022-08-01T02:20:50;8.57;;;5.22;;
69392;SDS011;56582;44.624;20.378;2022-08-01T02:23:19;9.73;;;5.03;;
69392;SDS011;56582;44.624;20.378;2022-08-01T02:25:50;16.88;;;5.30;;
69392;SDS011;56582;44.624;20.378;2022-08-01T02:28:25;14.18;;;5.43;;
69392;SDS011;56582;44.624;20.378;2022-08-01T02:30:54;8.68;;;3.95;;
69392;SDS011;56582;44.624;20.378;2022-08-01T02:33:35;8.93;;;4.10;;
69392;SDS011;56582;44.624;20.378;2022-08-01T02:36:03;9.03;;;4.57;;
69392;SDS011;56582;44.624;20.378;2022-08-01T02:38:30;8.52;;;4.30;;
69392;SDS011;56582;44.624;20.378;2022-08-01T02:40:57;8.70;;;4.07;;
69392;SDS011;56582;44.624;20.378;2022-08-01T02:43:28;7.55;;;4.20;;
69392;SDS011;56582;44.624;20.378;2022-08-01T02:45:57;7.63;;;4.35;;
69392;SDS011;56582;44.624;20.378;2022-08-01T02:48:25;6.77;;;3.80;;
69392;SDS011;56582;44.624;20.378;2022-08-01T02:50:52;8.35;;;4.20;;
69392;SDS011;56582;44.624;20.378;2022-08-01T02:53:20;8.15;;;4.40;;
69392;SDS011;56582;44.624;20.378;2022-08-01T02:55:49;21.30;;;5.43;;
69392;SDS011;56582;44.624;20.378;2022-08-01T02:58:16;17.02;;;4.57;;
69392;SDS011;56582;44.624;20.378;2022-08-01T03:00:43;12.63;;;5.33;;
69392;SDS011;56582;44.624;20.378;2022-08-01T03:03:10;9.20;;;4.70;;
69392;SDS011;56582;44.624;20.378;2022-08-01T03:05:37;9.07;;;5.20;;
69392;SDS011;56582;44.624;20.378;2022-08-01T03:08:05;25.48;;;6.53;;
69392;SDS011;56582;44.624;20.378;2022-08-01T03:10:33;24.88;;;6.13;;
69392;SDS011;56582;44.624;20.378;2022-08-01T03:13:01;20.17;;;5.53;;
69392;SDS011;56582;44.624;20.378;2022-08-01T03:15:31;16.67;;;5.43;;
69392;SDS011;56582;44.624;20.378;2022-08-01T03:17:58;11.93;;;5.10;;
69392;SDS011;56582;44.624;20.378;2022-08-01T03:20:26;15.95;;;4.88;;
69392;SDS011;56582;44.624;20.378;2022-08-01T03:22:53;22.63;;;5.35;;
69392;SDS011;56582;44.624;20.378;2022-08-01T03:25:19;25.47;;;6.07;;
69392;SDS011;56582;44.624;20.378;2022-08-01T03:27:47;23.92;;;5.18;;
69392;SDS011;56582;44.624;20.378;2022-08-01T03:30:19;12.18;;;5.15;;
69392;SDS011;56582;44.624;20.378;2022-08-01T03:32:46;29.80;;;6.78;;
69392;SDS011;56582;44.624;20.378;2022-08-01T03:35:11;22.57;;;6.20;;
69392;SDS011;56582;44.624;20.378;2022-08-01T03:37:47;12.83;;;5.13;;
69392;SDS011;56582;44.624;20.378;2022-08-01T03:40:20;8.10;;;4.60;;
69392;SDS011;56582;44.624;20.378;2022-08-01T03:42:51;13.38;;;5.82;;
69392;SDS011;56582;44.624;20.378;2022-08-01T03:45:22;12.02;;;5.53;;
69392;SDS011;56582;44.624;20.378;2022-08-01T03:47:52;21.63;;;5.93;;
69392;SDS011;56582;44.624;20.378;2022-08-01T03:50:26;11.50;;;4.63;;
69392;SDS011;56582;44.624;20.378;2022-08-01T03:52:54;16.47;;;5.07;;
69392;SDS011;56582;44.624;20.378;2022-08-01T03:55:24;8.63;;;5.03;;
69392;SDS011;56582;44.624;20.378;2022-08-01T03:57:50;14.93;;;4.60;;
69392;SDS011;56582;44.624;20.378;2022-08-01T04:00:17;20.40;;;5.82;;
69392;SDS011;56582;44.624;20.378;2022-08-01T04:02:46;55.55;;;8.50;;
69392;SDS011;56582;44.624;20.378;2022-08-01T04:05:13;32.87;;;7.23;;
69392;SDS011;56582;44.624;20.378;2022-08-01T04:07:40;19.48;;;5.00;;
69392;SDS011;56582;44.624;20.378;2022-08-01T04:10:10;19.40;;;5.28;;
69392;SDS011;56582;44.624;20.378;2022-08-01T04:12:36;12.15;;;5.65;;
69392;SDS011;56582;44.624;20.378;2022-08-01T04:15:02;16.83;;;5.00;;
69392;SDS011;56582;44.624;20.378;2022-08-01T04:17:28;9.07;;;5.13;;
69392;SDS011;56582;44.624;20.378;2022-08-01T04:19:53;8.97;;;4.60;;
69392;SDS011;56582;44.624;20.378;2022-08-01T04:22:18;15.00;;;5.03;;
69392;SDS011;56582;44.624;20.378;2022-08-01T04:24:46;10.88;;;5.00;;
69392;SDS011;56582;44.624;20.378;2022-08-01T04:27:14;8.73;;;4.75;;
69392;SDS011;56582;44.624;20.378;2022-08-01T04:29:46;12.27;;;5.53;;
69392;SDS011;56582;44.624;20.378;2022-08-01T04:32:15;7.07;;;5.40;;
69392;SDS011;56582;44.624;20.378;2022-08-01T04:34:42;7.57;;;5.55;;
69392;SDS011;56582;44.624;20.378;2022-08-01T04:37:11;32.38;;;12.02;;
69392;SDS011;56582;44.624;20.378;2022-08-01T04:39:41;8.75;;;6.28;;
69392;SDS011;56582;44.624;20.378;2022-08-01T04:42:07;7.13;;;5.60;;
69392;SDS011;56582;44.624;20.378;2022-08-01T04:44:35;10.63;;;6.03;;
69392;SDS011;56582;44.624;20.378;2022-08-01T04:47:02;11.90;;;6.75;;
69392;SDS011;56582;44.624;20.378;2022-08-01T04:49:31;10.13;;;6.30;;
69392;SDS011;56582;44.624;20.378;2022-08-01T04:51:58;9.38;;;6.72;;
69392;SDS011;56582;44.624;20.378;2022-08-01T04:54:25;12.63;;;6.80;;
69392;SDS011;56582;44.624;20.378;2022-08-01T04:56:52;8.13;;;6.28;;
69392;SDS011;56582;44.624;20.378;2022-08-01T04:59:20;11.20;;;7.30;;
69392;SDS011;56582;44.624;20.378;2022-08-01T05:02:09;9.05;;;6.70;;
69392;SDS011;56582;44.624;20.378;2022-08-01T05:04:36;9.45;;;6.13;;
69392;SDS011;56582;44.624;20.378;2022-08-01T05:07:03;7.40;;;6.53;;
69392;SDS011;56582;44.624;20.378;2022-08-01T05:09:29;8.95;;;6.05;;
69392;SDS011;56582;44.624;20.378;2022-08-01T05:11:55;9.40;;;6.00;;
69392;SDS011;56582;44.624;20.378;2022-08-01T05:14:23;13.10;;;7.28;;
69392;SDS011;56582;44.624;20.378;2022-08-01T05:16:50;10.82;;;7.97;;
69392;SDS011;56582;44.624;20.378;2022-08-01T05:19:16;14.70;;;8.50;;
69392;SDS011;56582;44.624;20.378;2022-08-01T05:21:41;12.65;;;8.93;;
69392;SDS011;56582;44.624;20.378;2022-08-01T05:24:07;15.47;;;10.10;;
69392;SDS011;56582;44.624;20.378;2022-08-01T05:26:32;16.83;;;10.53;;
69392;SDS011;56582;44.624;20.378;2022-08-01T05:28:58;17.70;;;11.40;;
69392;SDS011;56582;44.624;20.378;2022-08-01T05:31:24;14.52;;;9.98;;
69392;SDS011;56582;44.624;20.378;2022-08-01T05:33:50;14.33;;;11.37;;
69392;SDS011;56582;44.624;20.378;2022-08-01T05:36:15;14.43;;;10.77;;
69392;SDS011;56582;44.624;20.378;2022-08-01T05:38:40;15.37;;;9.90;;
69392;SDS011;56582;44.624;20.378;2022-08-01T05:41:06;13.00;;;10.00;;
69392;SDS011;56582;44.624;20.378;2022-08-01T05:43:31;16.40;;;9.73;;
69392;SDS011;56582;44.624;20.378;2022-08-01T05:45:57;11.67;;;8.83;;
69392;SDS011;56582;44.624;20.378;2022-08-01T05:48:23;12.32;;;9.43;;
69392;SDS011;56582;44.624;20.378;2022-08-01T05:50:49;14.63;;;9.50;;
69392;SDS011;56582;44.624;20.378;2022-08-01T05:53:15;12.90;;;9.82;;
69392;SDS011;56582;44.624;20.378;2022-08-01T05:55:41;15.27;;;9.67;;
69392;SDS011;56582;44.624;20.378;2022-08-01T05:58:06;11.17;;;9.57;;
69392;SDS011;56582;44.624;20.378;2022-08-01T06:00:32;11.87;;;8.97;;
69392;SDS011;56582;44.624;20.378;2022-08-01T06:02:57;13.00;;;9.18;;
69392;SDS011;56582;44.624;20.378;2022-08-01T06:05:23;12.60;;;8.97;;
69392;SDS011;56582;44.624;20.378;2022-08-01T06:07:50;14.52;;;8.73;;
69392;SDS011;56582;44.624;20.378;2022-08-01T06:10:15;10.77;;;8.53;;
69392;SDS011;56582;44.624;20.378;2022-08-01T06:12:41;12.70;;;9.37;;
69392;SDS011;56582;44.624;20.378;2022-08-01T06:15:07;13.50;;;9.10;;
69392;SDS011;56582;44.624;20.378;2022-08-01T06:17:33;13.85;;;8.95;;
69392;SDS011;56582;44.624;20.378;2022-08-01T06:19:59;11.80;;;9.02;;
69392;SDS011;56582;44.624;20.378;2022-08-01T06:22:24;11.57;;;8.70;;
69392;SDS011;56582;44.624;20.378;2022-08-01T06:24:50;11.70;;;8.30;;
69392;SDS011;56582;44.624;20.378;2022-08-01T06:27:15;18.40;;;9.33;;
69392;SDS011;56582;44.624;20.378;2022-08-01T06:29:41;11.57;;;8.15;;
69392;SDS011;56582;44.624;20.378;2022-08-01T06:32:08;19.13;;;8.60;;
69392;SDS011;56582;44.624;20.378;2022-08-01T06:34:34;14.10;;;9.20;;
69392;SDS011;56582;44.624;20.378;2022-08-01T06:37:00;11.52;;;9.82;;
69392;SDS011;56582;44.624;20.378;2022-08-01T06:39:25;13.07;;;9.93;;
69392;SDS011;56582;44.624;20.378;2022-08-01T06:41:51;10.97;;;8.33;;
69392;SDS011;56582;44.624;20.378;2022-08-01T06:44:16;11.65;;;8.90;;
69392;SDS011;56582;44.624;20.378;2022-08-01T06:46:41;12.20;;;8.23;;
69392;SDS011;56582;44.624;20.378;2022-08-01T06:49:07;10.07;;;7.90;;
69392;SDS011;56582;44.624;20.378;2022-08-01T06:51:32;11.50;;;7.55;;
69392;SDS011;56582;44.624;20.378;2022-08-01T06:53:58;9.97;;;6.40;;
69392;SDS011;56582;44.624;20.378;2022-08-01T06:56:23;8.00;;;5.97;;
69392;SDS011;56582;44.624;20.378;2022-08-01T06:58:49;8.82;;;7.03;;
69392;SDS011;56582;44.624;20.378;2022-08-01T07:01:15;8.83;;;6.27;;
69392;SDS011;56582;44.624;20.378;2022-08-01T07:03:41;7.90;;;5.80;;
69392;SDS011;56582;44.624;20.378;2022-08-01T07:06:06;8.07;;;5.80;;
69392;SDS011;56582;44.624;20.378;2022-08-01T07:08:32;7.55;;;5.85;;
69392;SDS011;56582;44.624;20.378;2022-08-01T07:10:58;8.20;;;6.10;;
69392;SDS011;56582;44.624;20.378;2022-08-01T07:13:27;14.57;;;5.82;;
69392;SDS011;56582;44.624;20.378;2022-08-01T07:15:53;9.48;;;6.80;;
69392;SDS011;56582;44.624;20.378;2022-08-01T07:18:19;13.20;;;8.75;;
69392;SDS011;56582;44.624;20.378;2022-08-01T07:20:44;10.37;;;7.70;;
69392;SDS011;56582;44.624;20.378;2022-08-01T07:23:13;7.72;;;5.97;;
69392;SDS011;56582;44.624;20.378;2022-08-01T07:25:39;10.95;;;6.43;;
69392;SDS011;56582;44.624;20.378;2022-08-01T07:28:05;21.03;;;12.43;;
69392;SDS011;56582;44.624;20.378;2022-08-01T07:30:30;18.08;;;8.85;;
69392;SDS011;56582;44.624;20.378;2022-08-01T07:32:56;23.20;;;15.37;;
69392;SDS011;56582;44.624;20.378;2022-08-01T07:35:22;25.45;;;14.25;;
69392;SDS011;56582;44.624;20.378;2022-08-01T07:37:47;9.87;;;6.37;;
69392;SDS011;56582;44.624;20.378;2022-08-01T07:40:13;8.77;;;5.80;;
69392;SDS011;56582;44.624;20.378;2022-08-01T07:42:39;7.53;;;5.88;;
69392;SDS011;56582;44.624;20.378;2022-08-01T07:45:08;11.95;;;7.57;;
69392;SDS011;56582;44.624;20.378;2022-08-01T07:47:34;12.88;;;9.88;;
69392;SDS011;56582;44.624;20.378;2022-08-01T07:50:00;12.43;;;6.70;;
69392;SDS011;56582;44.624;20.378;2022-08-01T07:52:27;7.28;;;6.00;;
69392;SDS011;56582;44.624;20.378;2022-08-01T07:54:53;7.47;;;6.00;;
69392;SDS011;56582;44.624;20.378;2022-08-01T07:57:19;7.68;;;5.63;;
69392;SDS011;56582;44.624;20.378;2022-08-01T07:59:45;9.17;;;5.90;;
69392;SDS011;56582;44.624;20.378;2022-08-01T08:02:10;7.63;;;5.30;;
69392;SDS011;56582;44.624;20.378;2022-08-01T08:04:36;9.80;;;5.57;;
69392;SDS011;56582;44.624;20.378;2022-08-01T08:07:02;8.20;;;5.37;;
69392;SDS011;56582;44.624;20.378;2022-08-01T08:09:27;8.65;;;5.65;;
69392;SDS011;56582;44.624;20.378;2022-08-01T08:11:53;9.13;;;5.75;;
69392;SDS011;56582;44.624;20.378;2022-08-01T08:14:19;6.80;;;5.23;;
69392;SDS011;56582;44.624;20.378;2022-08-01T08:16:44;7.63;;;5.33;;
69392;SDS011;56582;44.624;20.378;2022-08-01T08:19:10;6.68;;;5.10;;
69392;SDS011;56582;44.624;20.378;2022-08-01T08:21:36;7.43;;;5.85;;
69392;SDS011;56582;44.624;20.378;2022-08-01T08:24:02;6.47;;;5.30;;
69392;SDS011;56582;44.624;20.378;2022-08-01T08:26:47;8.25;;;4.78;;
69392;SDS011;56582;44.624;20.378;2022-08-01T08:29:14;8.93;;;6.10;;
69392;SDS011;56582;44.624;20.378;2022-08-01T08:31:40;9.18;;;5.50;;
69392;SDS011;56582;44.624;20.378;2022-08-01T08:34:06;8.83;;;5.67;;
69392;SDS011;56582;44.624;20.378;2022-08-01T08:36:31;6.93;;;5.20;;
69392;SDS011;56582;44.624;20.378;2022-08-01T08:38:57;8.53;;;5.03;;
69392;SDS011;56582;44.624;20.378;2022-08-01T08:41:25;9.90;;;6.30;;
69392;SDS011;56582;44.624;20.378;2022-08-01T08:43:51;8.00;;;5.67;;
69392;SDS011;56582;44.624;20.378;2022-08-01T08:46:17;5.85;;;5.20;;
69392;SDS011;56582;44.624;20.378;2022-08-01T08:48:43;6.55;;;5.05;;
69392;SDS011;56582;44.624;20.378;2022-08-01T08:51:10;7.43;;;5.05;;
69392;SDS011;56582;44.624;20.378;2022-08-01T08:53:38;8.52;;;5.95;;
69392;SDS011;56582;44.624;20.378;2022-08-01T08:56:08;5.70;;;4.60;;
69392;SDS011;56582;44.624;20.378;2022-08-01T08:58:36;6.78;;;5.47;;
69392;SDS011;56582;44.624;20.378;2022-08-01T09:01:06;6.88;;;5.22;;
69392;SDS011;56582;44.624;20.378;2022-08-01T09:03:33;9.50;;;5.10;;
69392;SDS011;56582;44.624;20.378;2022-08-01T09:05:59;6.75;;;5.38;;
69392;SDS011;56582;44.624;20.378;2022-08-01T09:08:25;8.30;;;5.50;;
69392;SDS011;56582;44.624;20.378;2022-08-01T09:10:51;6.30;;;5.33;;
69392;SDS011;56582;44.624;20.378;2022-08-01T09:13:16;6.88;;;5.32;;
69392;SDS011;56582;44.624;20.378;2022-08-01T09:23:35;8.03;;;5.47;;
69392;SDS011;56582;44.624;20.378;2022-08-01T09:26:05;7.00;;;4.85;;
69392;SDS011;56582;44.624;20.378;2022-08-01T09:28:31;9.20;;;6.07;;
69392;SDS011;56582;44.624;20.378;2022-08-01T09:30:57;7.60;;;5.20;;
69392;SDS011;56582;44.624;20.378;2022-08-01T09:33:23;6.72;;;5.10;;
69392;SDS011;56582;44.624;20.378;2022-08-01T09:35:55;8.32;;;5.32;;
69392;SDS011;56582;44.624;20.378;2022-08-01T09:38:23;6.05;;;5.38;;
69392;SDS011;56582;44.624;20.378;2022-08-01T09:40:55;6.63;;;5.43;;
69392;SDS011;56582;44.624;20.378;2022-08-01T09:43:26;6.88;;;5.80;;
69392;SDS011;56582;44.624;20.378;2022-08-01T09:45:54;6.65;;;5.57;;
69392;SDS011;56582;44.624;20.378;2022-08-01T09:48:20;8.70;;;5.28;;
69392;SDS011;56582;44.624;20.378;2022-08-01T09:50:48;7.50;;;4.95;;
69392;SDS011;56582;44.624;20.378;2022-08-01T09:53:16;6.83;;;5.00;;
69392;SDS011;56582;44.624;20.378;2022-08-01T09:55:43;8.88;;;6.30;;
69392;SDS011;56582;44.624;20.378;2022-08-01T09:58:09;8.15;;;5.57;;
69392;SDS011;56582;44.624;20.378;2022-08-01T10:00:36;8.07;;;4.93;;
69392;SDS011;56582;44.624;20.378;2022-08-01T10:05:48;6.90;;;5.67;;
69392;SDS011;56582;44.624;20.378;2022-08-01T10:08:14;9.43;;;5.90;;
69392;SDS011;56582;44.624;20.378;2022-08-01T10:10:39;6.97;;;5.60;;
69392;SDS011;56582;44.624;20.378;2022-08-01T10:13:05;7.87;;;5.50;;
69392;SDS011;56582;44.624;20.378;2022-08-01T10:15:32;6.70;;;5.30;;
69392;SDS011;56582;44.624;20.378;2022-08-01T10:18:00;9.77;;;5.35;;
69392;SDS011;56582;44.624;20.378;2022-08-01T10:20:28;6.20;;;5.47;;
69392;SDS011;56582;44.624;20.378;2022-08-01T10:22:58;8.32;;;5.05;;
69392;SDS011;56582;44.624;20.378;2022-08-01T10:25:26;10.03;;;5.17;;
69392;SDS011;56582;44.624;20.378;2022-08-01T10:27:54;8.82;;;5.38;;
69392;SDS011;56582;44.624;20.378;2022-08-01T10:30:22;6.35;;;5.25;;
69392;SDS011;56582;44.624;20.378;2022-08-01T10:32:48;6.25;;;4.60;;
69392;SDS011;56582;44.624;20.378;2022-08-01T10:35:15;7.47;;;5.68;;
69392;SDS011;56582;44.624;20.378;2022-08-01T10:37:45;7.60;;;5.20;;
69392;SDS011;56582;44.624;20.378;2022-08-01T10:40:15;7.22;;;5.80;;
69392;SDS011;56582;44.624;20.378;2022-08-01T10:42:41;7.30;;;6.37;;
69392;SDS011;56582;44.624;20.378;2022-08-01T10:45:09;6.93;;;6.23;;
69392;SDS011;56582;44.624;20.378;2022-08-01T10:47:42;8.02;;;5.95;;
69392;SDS011;56582;44.624;20.378;2022-08-01T10:53:24;7.53;;;5.50;;
69392;SDS011;56582;44.624;20.378;2022-08-01T10:55:59;6.55;;;5.85;;
69392;SDS011;56582;44.624;20.378;2022-08-01T11:03:57;10.00;;;5.93;;
69392;SDS011;56582;44.624;20.378;2022-08-01T11:07:02;9.05;;;6.10;;
69392;SDS011;56582;44.624;20.378;2022-08-01T11:09:23;8.35;;;6.13;;
69392;SDS011;56582;44.624;20.378;2022-08-01T11:17:32;6.90;;;4.82;;
69392;SDS011;56582;44.624;20.378;2022-08-01T11:20:10;7.30;;;5.15;;
69392;SDS011;56582;44.624;20.378;2022-08-01T11:25:26;6.90;;;5.70;;
69392;SDS011;56582;44.624;20.378;2022-08-01T11:30:39;7.53;;;5.80;;
69392;SDS011;56582;44.624;20.378;2022-08-01T11:33:05;6.43;;;5.03;;
69392;SDS011;56582;44.624;20.378;2022-08-01T11:35:31;7.30;;;4.90;;
69392;SDS011;56582;44.624;20.378;2022-08-01T11:37:57;7.13;;;5.00;;
69392;SDS011;56582;44.624;20.378;2022-08-01T11:44:00;7.60;;;4.33;;
69392;SDS011;56582;44.624;20.378;2022-08-01T11:49:26;6.97;;;5.07;;
69392;SDS011;56582;44.624;20.378;2022-08-01T11:54:27;5.93;;;4.30;;
69392;SDS011;56582;44.624;20.378;2022-08-01T11:56:58;6.07;;;4.40;;
69392;SDS011;56582;44.624;20.378;2022-08-01T11:59:24;5.85;;;3.85;;
69392;SDS011;56582;44.624;20.378;2022-08-01T12:01:51;5.93;;;3.70;;
69392;SDS011;56582;44.624;20.378;2022-08-01T12:04:17;8.13;;;5.57;;
69392;SDS011;56582;44.624;20.378;2022-08-01T12:06:43;7.40;;;5.03;;
69392;SDS011;56582;44.624;20.378;2022-08-01T12:09:16;9.57;;;5.13;;
69392;SDS011;56582;44.624;20.378;2022-08-01T12:11:45;5.25;;;4.35;;
69392;SDS011;56582;44.624;20.378;2022-08-01T12:14:18;5.10;;;3.90;;
69392;SDS011;56582;44.624;20.378;2022-08-01T12:16:51;6.00;;;4.47;;
69392;SDS011;56582;44.624;20.378;2022-08-01T12:19:22;5.87;;;4.07;;
69392;SDS011;56582;44.624;20.378;2022-08-01T12:22:07;8.20;;;4.10;;
69392;SDS011;56582;44.624;20.378;2022-08-01T12:24:41;6.00;;;4.43;;
69392;SDS011;56582;44.624;20.378;2022-08-01T12:27:08;5.15;;;3.85;;
69392;SDS011;56582;44.624;20.378;2022-08-01T12:29:42;5.55;;;4.00;;
69392;SDS011;56582;44.624;20.378;2022-08-01T12:32:28;6.30;;;4.70;;
69392;SDS011;56582;44.624;20.378;2022-08-01T12:34:57;8.32;;;4.95;;
69392;SDS011;56582;44.624;20.378;2022-08-01T12:37:26;11.13;;;6.88;;
69392;SDS011;56582;44.624;20.378;2022-08-01T12:39:52;9.70;;;4.80;;
69392;SDS011;56582;44.624;20.378;2022-08-01T12:42:18;7.88;;;5.28;;
69392;SDS011;56582;44.624;20.378;2022-08-01T12:44:44;7.30;;;5.38;;
69392;SDS011;56582;44.624;20.378;2022-08-01T12:47:12;9.83;;;5.43;;
69392;SDS011;56582;44.624;20.378;2022-08-01T12:49:39;6.60;;;4.00;;
69392;SDS011;56582;44.624;20.378;2022-08-01T12:52:06;7.93;;;4.95;;
69392;SDS011;56582;44.624;20.378;2022-08-01T12:54:59;9.03;;;5.27;;
69392;SDS011;56582;44.624;20.378;2022-08-01T12:57:31;7.22;;;5.22;;
69392;SDS011;56582;44.624;20.378;2022-08-01T13:00:09;6.30;;;3.65;;
69392;SDS011;56582;44.624;20.378;2022-08-01T13:02:40;7.37;;;4.50;;
69392;SDS011;56582;44.624;20.378;2022-08-01T13:05:07;8.20;;;4.07;;
69392;SDS011;56582;44.624;20.378;2022-08-01T13:07:49;5.80;;;4.38;;
69392;SDS011;56582;44.624;20.378;2022-08-01T13:10:23;7.43;;;4.05;;
69392;SDS011;56582;44.624;20.378;2022-08-01T13:12:52;5.60;;;4.43;;
69392;SDS011;56582;44.624;20.378;2022-08-01T13:15:20;5.73;;;3.93;;
69392;SDS011;56582;44.624;20.378;2022-08-01T13:17:48;6.25;;;4.15;;
69392;SDS011;56582;44.624;20.378;2022-08-01T13:20:24;6.03;;;4.80;;
69392;SDS011;56582;44.624;20.378;2022-08-01T13:22:54;5.28;;;4.13;;
69392;SDS011;56582;44.624;20.378;2022-08-01T13:25:20;6.47;;;3.77;;
69392;SDS011;56582;44.624;20.378;2022-08-01T13:27:46;8.05;;;4.90;;
69392;SDS011;56582;44.624;20.378;2022-08-01T13:30:15;7.87;;;4.40;;
69392;SDS011;56582;44.624;20.378;2022-08-01T13:32:43;7.97;;;4.90;;
69392;SDS011;56582;44.624;20.378;2022-08-01T13:35:29;6.18;;;4.85;;
69392;SDS011;56582;44.624;20.378;2022-08-01T13:37:55;8.23;;;4.63;;
69392;SDS011;56582;44.624;20.378;2022-08-01T13:40:25;6.82;;;4.53;;
69392;SDS011;56582;44.624;20.378;2022-08-01T13:42:55;6.20;;;4.03;;
69392;SDS011;56582;44.624;20.378;2022-08-01T13:45:21;9.85;;;4.68;;
69392;SDS011;56582;44.624;20.378;2022-08-01T13:47:48;11.85;;;6.15;;
69392;SDS011;56582;44.624;20.378;2022-08-01T13:50:13;9.23;;;4.27;;
69392;SDS011;56582;44.624;20.378;2022-08-01T13:52:39;8.13;;;3.90;;
69392;SDS011;56582;44.624;20.378;2022-08-01T13:55:07;8.10;;;4.70;;
69392;SDS011;56582;44.624;20.378;2022-08-01T13:57:33;8.55;;;4.80;;
69392;SDS011;56582;44.624;20.378;2022-08-01T13:59:58;5.30;;;4.50;;
69392;SDS011;56582;44.624;20.378;2022-08-01T14:02:25;6.15;;;4.05;;
69392;SDS011;56582;44.624;20.378;2022-08-01T14:04:52;6.68;;;4.30;;
69392;SDS011;56582;44.624;20.378;2022-08-01T14:07:19;9.63;;;5.80;;
69392;SDS011;56582;44.624;20.378;2022-08-01T14:09:45;8.18;;;5.10;;
69392;SDS011;56582;44.624;20.378;2022-08-01T14:12:10;5.77;;;3.63;;
69392;SDS011;56582;44.624;20.378;2022-08-01T14:14:35;7.57;;;4.65;;
69392;SDS011;56582;44.624;20.378;2022-08-01T14:17:02;5.83;;;4.40;;
69392;SDS011;56582;44.624;20.378;2022-08-01T14:19:28;7.65;;;4.55;;
69392;SDS011;56582;44.624;20.378;2022-08-01T14:21:53;10.07;;;5.30;;
69392;SDS011;56582;44.624;20.378;2022-08-01T14:24:18;12.90;;;5.23;;
69392;SDS011;56582;44.624;20.378;2022-08-01T14:26:44;6.60;;;3.95;;
69392;SDS011;56582;44.624;20.378;2022-08-01T14:29:10;5.93;;;4.00;;
69392;SDS011;56582;44.624;20.378;2022-08-01T14:31:35;5.83;;;3.30;;
69392;SDS011;56582;44.624;20.378;2022-08-01T14:34:00;6.30;;;4.05;;
69392;SDS011;56582;44.624;20.378;2022-08-01T14:36:26;8.57;;;4.67;;
69392;SDS011;56582;44.624;20.378;2022-08-01T14:38:52;5.90;;;4.47;;
69392;SDS011;56582;44.624;20.378;2022-08-01T14:41:18;8.13;;;4.60;;
69392;SDS011;56582;44.624;20.378;2022-08-01T14:43:43;7.53;;;5.40;;
69392;SDS011;56582;44.624;20.378;2022-08-01T14:46:09;7.80;;;4.77;;
69392;SDS011;56582;44.624;20.378;2022-08-01T14:48:35;7.93;;;4.82;;
69392;SDS011;56582;44.624;20.378;2022-08-01T14:51:00;8.43;;;3.50;;
69392;SDS011;56582;44.624;20.378;2022-08-01T14:53:29;5.90;;;3.95;;
69392;SDS011;56582;44.624;20.378;2022-08-01T14:55:55;5.43;;;3.47;;
69392;SDS011;56582;44.624;20.378;2022-08-01T14:58:21;8.30;;;4.30;;
69392;SDS011;56582;44.624;20.378;2022-08-01T15:00:46;6.80;;;4.37;;
69392;SDS011;56582;44.624;20.378;2022-08-01T15:03:12;6.97;;;4.60;;
69392;SDS011;56582;44.624;20.378;2022-08-01T15:05:37;8.63;;;5.03;;
69392;SDS011;56582;44.624;20.378;2022-08-01T15:08:03;6.97;;;4.30;;
69392;SDS011;56582;44.624;20.378;2022-08-01T15:10:30;9.10;;;4.07;;
69392;SDS011;56582;44.624;20.378;2022-08-01T15:12:57;6.97;;;4.20;;
69392;SDS011;56582;44.624;20.378;2022-08-01T15:15:24;8.60;;;3.80;;
69392;SDS011;56582;44.624;20.378;2022-08-01T15:17:51;8.35;;;4.50;;
69392;SDS011;56582;44.624;20.378;2022-08-01T15:20:17;7.50;;;4.18;;
69392;SDS011;56582;44.624;20.378;2022-08-01T15:22:43;6.83;;;3.70;;